sensor_id;sensor_type;location;lat;lon;timestamp;P1;durP1;ratioP1;P2;durP2;ratioP2
76854;SDS011;66343;44.588;33.450;2023-04-24T00:00:51;12.30;;;5.50;;
76854;SDS011;66343;44.588;33.450;2023-04-24T00:03:24;12.30;;;6.07;;
76854;SDS011;66343;44.588;33.450;2023-04-24T00:05:54;11.90;;;5.35;;
76854;SDS011;66343;44.588;33.450;2023-04-24T00:08:24;10.40;;;5.97;;
76854;SDS011;66343;44.588;33.450;2023-04-24T00:10:58;10.50;;;5.20;;
76854;SDS011;66343;44.588;33.450;2023-04-24T00:13:32;13.27;;;5.90;;
76854;SDS011;66343;44.588;33.450;2023-04-24T00:18:37;12.25;;;5.93;;
76854;SDS011;66343;44.588;33.450;2023-04-24T00:21:06;11.65;;;5.25;;
76854;SDS011;66343;44.588;33.450;2023-04-24T00:23:41;12.95;;;5.85;;
76854;SDS011;66343;44.588;33.450;2023-04-24T00:26:14;13.63;;;5.60;;
76854;SDS011;66343;44.588;33.450;2023-04-24T00:28:43;11.75;;;6.18;;
76854;SDS011;66343;44.588;33.450;2023-04-24T00:31:15;12.52;;;6.07;;
76854;SDS011;66343;44.588;33.450;2023-04-24T00:33:48;11.10;;;5.32;;
76854;SDS011;66343;44.588;33.450;2023-04-24T00:36:20;12.82;;;6.40;;
76854;SDS011;66343;44.588;33.450;2023-04-24T00:38:52;11.40;;;5.90;;
76854;SDS011;66343;44.588;33.450;2023-04-24T00:41:26;12.10;;;5.47;;
76854;SDS011;66343;44.588;33.450;2023-04-24T00:44:01;13.15;;;5.90;;
76854;SDS011;66343;44.588;33.450;2023-04-24T00:46:30;13.60;;;5.45;;
76854;SDS011;66343;44.588;33.450;2023-04-24T00:48:59;15.75;;;7.88;;
76854;SDS011;66343;44.588;33.450;2023-04-24T00:51:40;13.85;;;6.30;;
76854;SDS011;66343;44.588;33.450;2023-04-24T00:54:23;12.70;;;5.88;;
76854;SDS011;66343;44.588;33.450;2023-04-24T00:56:54;11.13;;;5.47;;
76854;SDS011;66343;44.588;33.450;2023-04-24T00:59:40;14.27;;;6.88;;
76854;SDS011;66343;44.588;33.450;2023-04-24T01:04:40;10.52;;;5.45;;
76854;SDS011;66343;44.588;33.450;2023-04-24T01:07:11;12.52;;;5.20;;
76854;SDS011;66343;44.588;33.450;2023-04-24T01:09:44;13.52;;;6.07;;
76854;SDS011;66343;44.588;33.450;2023-04-24T01:12:19;13.52;;;5.88;;
76854;SDS011;66343;44.588;33.450;2023-04-24T01:14:51;12.60;;;5.10;;
76854;SDS011;66343;44.588;33.450;2023-04-24T01:17:38;12.65;;;6.07;;
76854;SDS011;66343;44.588;33.450;2023-04-24T01:20:10;11.80;;;5.40;;
76854;SDS011;66343;44.588;33.450;2023-04-24T01:22:44;9.93;;;5.15;;
76854;SDS011;66343;44.588;33.450;2023-04-24T01:25:17;8.82;;;4.40;;
76854;SDS011;66343;44.588;33.450;2023-04-24T01:27:58;11.77;;;5.75;;
76854;SDS011;66343;44.588;33.450;2023-04-24T01:30:31;15.13;;;5.60;;
76854;SDS011;66343;44.588;33.450;2023-04-24T01:33:04;10.82;;;5.53;;
76854;SDS011;66343;44.588;33.450;2023-04-24T01:35:33;14.18;;;6.22;;
76854;SDS011;66343;44.588;33.450;2023-04-24T01:38:07;11.20;;;6.18;;
76854;SDS011;66343;44.588;33.450;2023-04-24T01:40:40;14.82;;;6.80;;
76854;SDS011;66343;44.588;33.450;2023-04-24T01:43:11;11.88;;;5.65;;
76854;SDS011;66343;44.588;33.450;2023-04-24T01:45:40;12.45;;;6.13;;
76854;SDS011;66343;44.588;33.450;2023-04-24T01:48:16;11.98;;;5.75;;
76854;SDS011;66343;44.588;33.450;2023-04-24T01:50:45;11.52;;;6.05;;
76854;SDS011;66343;44.588;33.450;2023-04-24T01:53:19;12.18;;;6.57;;
76854;SDS011;66343;44.588;33.450;2023-04-24T01:55:50;12.93;;;5.53;;
76854;SDS011;66343;44.588;33.450;2023-04-24T01:58:25;11.18;;;5.40;;
76854;SDS011;66343;44.588;33.450;2023-04-24T02:01:00;12.02;;;5.25;;
76854;SDS011;66343;44.588;33.450;2023-04-24T02:03:34;11.35;;;5.65;;
76854;SDS011;66343;44.588;33.450;2023-04-24T02:06:04;9.45;;;5.90;;
76854;SDS011;66343;44.588;33.450;2023-04-24T02:08:36;16.95;;;5.55;;
76854;SDS011;66343;44.588;33.450;2023-04-24T02:11:11;12.27;;;5.95;;
76854;SDS011;66343;44.588;33.450;2023-04-24T02:13:42;12.90;;;5.85;;
76854;SDS011;66343;44.588;33.450;2023-04-24T02:16:13;12.52;;;5.20;;
76854;SDS011;66343;44.588;33.450;2023-04-24T02:18:45;10.68;;;4.85;;
76854;SDS011;66343;44.588;33.450;2023-04-24T02:21:15;12.93;;;5.85;;
76854;SDS011;66343;44.588;33.450;2023-04-24T02:23:46;14.57;;;5.93;;
76854;SDS011;66343;44.588;33.450;2023-04-24T02:26:17;10.68;;;4.95;;
76854;SDS011;66343;44.588;33.450;2023-04-24T02:28:47;12.25;;;5.88;;
76854;SDS011;66343;44.588;33.450;2023-04-24T02:31:21;14.20;;;6.07;;
76854;SDS011;66343;44.588;33.450;2023-04-24T02:33:56;13.48;;;5.85;;
76854;SDS011;66343;44.588;33.450;2023-04-24T02:36:25;16.15;;;6.10;;
76854;SDS011;66343;44.588;33.450;2023-04-24T02:38:54;12.32;;;5.10;;
76854;SDS011;66343;44.588;33.450;2023-04-24T02:41:26;11.85;;;5.13;;
76854;SDS011;66343;44.588;33.450;2023-04-24T02:43:59;11.45;;;5.40;;
76854;SDS011;66343;44.588;33.450;2023-04-24T02:46:33;11.30;;;5.30;;
76854;SDS011;66343;44.588;33.450;2023-04-24T02:49:02;17.08;;;5.18;;
76854;SDS011;66343;44.588;33.450;2023-04-24T02:51:40;12.98;;;5.55;;
76854;SDS011;66343;44.588;33.450;2023-04-24T02:54:11;10.10;;;5.03;;
76854;SDS011;66343;44.588;33.450;2023-04-24T02:56:41;13.45;;;5.38;;
76854;SDS011;66343;44.588;33.450;2023-04-24T02:59:10;11.70;;;5.47;;
76854;SDS011;66343;44.588;33.450;2023-04-24T03:01:42;11.07;;;5.15;;
76854;SDS011;66343;44.588;33.450;2023-04-24T03:04:17;11.95;;;5.93;;
76854;SDS011;66343;44.588;33.450;2023-04-24T03:06:48;12.23;;;5.72;;
76854;SDS011;66343;44.588;33.450;2023-04-24T03:09:21;13.60;;;5.93;;
76854;SDS011;66343;44.588;33.450;2023-04-24T03:11:53;14.85;;;6.00;;
76854;SDS011;66343;44.588;33.450;2023-04-24T03:14:22;12.02;;;5.57;;
76854;SDS011;66343;44.588;33.450;2023-04-24T03:16:54;12.75;;;5.65;;
76854;SDS011;66343;44.588;33.450;2023-04-24T03:19:31;10.77;;;5.30;;
76854;SDS011;66343;44.588;33.450;2023-04-24T03:22:05;11.93;;;6.43;;
76854;SDS011;66343;44.588;33.450;2023-04-24T03:24:40;11.57;;;5.82;;
76854;SDS011;66343;44.588;33.450;2023-04-24T03:27:09;11.00;;;5.22;;
76854;SDS011;66343;44.588;33.450;2023-04-24T03:32:47;12.65;;;4.78;;
76854;SDS011;66343;44.588;33.450;2023-04-24T03:35:22;14.98;;;5.13;;
76854;SDS011;66343;44.588;33.450;2023-04-24T03:37:55;13.27;;;5.03;;
76854;SDS011;66343;44.588;33.450;2023-04-24T03:40:44;12.68;;;5.28;;
76854;SDS011;66343;44.588;33.450;2023-04-24T03:43:42;10.43;;;5.22;;
76854;SDS011;66343;44.588;33.450;2023-04-24T03:46:14;16.23;;;6.85;;
76854;SDS011;66343;44.588;33.450;2023-04-24T03:49:02;12.23;;;5.38;;
76854;SDS011;66343;44.588;33.450;2023-04-24T03:51:35;14.82;;;5.72;;
76854;SDS011;66343;44.588;33.450;2023-04-24T03:54:15;15.98;;;6.82;;
76854;SDS011;66343;44.588;33.450;2023-04-24T03:56:49;10.57;;;4.80;;
76854;SDS011;66343;44.588;33.450;2023-04-24T03:59:25;10.90;;;5.18;;
76854;SDS011;66343;44.588;33.450;2023-04-24T04:02:16;12.48;;;4.68;;
76854;SDS011;66343;44.588;33.450;2023-04-24T04:04:51;12.98;;;5.25;;
76854;SDS011;66343;44.588;33.450;2023-04-24T04:07:21;12.90;;;5.28;;
76854;SDS011;66343;44.588;33.450;2023-04-24T04:09:51;11.45;;;5.03;;
76854;SDS011;66343;44.588;33.450;2023-04-24T04:12:26;11.38;;;4.68;;
76854;SDS011;66343;44.588;33.450;2023-04-24T04:14:55;13.63;;;5.07;;
76854;SDS011;66343;44.588;33.450;2023-04-24T04:17:26;9.45;;;4.65;;
76854;SDS011;66343;44.588;33.450;2023-04-24T04:19:55;9.73;;;4.43;;
76854;SDS011;66343;44.588;33.450;2023-04-24T04:22:26;12.43;;;5.35;;
76854;SDS011;66343;44.588;33.450;2023-04-24T04:24:56;10.88;;;5.32;;
76854;SDS011;66343;44.588;33.450;2023-04-24T04:27:30;10.70;;;4.82;;
76854;SDS011;66343;44.588;33.450;2023-04-24T04:30:13;11.52;;;4.38;;
76854;SDS011;66343;44.588;33.450;2023-04-24T04:32:52;10.77;;;4.40;;
76854;SDS011;66343;44.588;33.450;2023-04-24T04:37:59;10.68;;;3.97;;
76854;SDS011;66343;44.588;33.450;2023-04-24T04:40:46;12.38;;;4.80;;
76854;SDS011;66343;44.588;33.450;2023-04-24T04:43:17;11.23;;;4.60;;
76854;SDS011;66343;44.588;33.450;2023-04-24T04:45:52;10.52;;;4.13;;
76854;SDS011;66343;44.588;33.450;2023-04-24T04:48:42;12.50;;;4.50;;
76854;SDS011;66343;44.588;33.450;2023-04-24T04:51:11;12.55;;;4.57;;
76854;SDS011;66343;44.588;33.450;2023-04-24T04:53:41;9.48;;;4.00;;
76854;SDS011;66343;44.588;33.450;2023-04-24T04:56:11;9.95;;;3.63;;
76854;SDS011;66343;44.588;33.450;2023-04-24T04:58:45;11.93;;;4.10;;
76854;SDS011;66343;44.588;33.450;2023-04-24T05:01:21;10.80;;;3.90;;
76854;SDS011;66343;44.588;33.450;2023-04-24T05:03:54;10.68;;;4.40;;
76854;SDS011;66343;44.588;33.450;2023-04-24T05:06:27;11.18;;;4.20;;
76854;SDS011;66343;44.588;33.450;2023-04-24T05:09:02;10.18;;;3.95;;
76854;SDS011;66343;44.588;33.450;2023-04-24T05:11:44;24.85;;;5.60;;
76854;SDS011;66343;44.588;33.450;2023-04-24T05:14:16;11.25;;;4.53;;
76854;SDS011;66343;44.588;33.450;2023-04-24T05:16:51;10.20;;;4.03;;
76854;SDS011;66343;44.588;33.450;2023-04-24T05:19:28;10.32;;;3.78;;
76854;SDS011;66343;44.588;33.450;2023-04-24T05:21:59;10.40;;;4.03;;
76854;SDS011;66343;44.588;33.450;2023-04-24T05:24:33;9.98;;;4.15;;
76854;SDS011;66343;44.588;33.450;2023-04-24T05:27:03;10.60;;;3.97;;
76854;SDS011;66343;44.588;33.450;2023-04-24T05:29:40;12.15;;;4.07;;
76854;SDS011;66343;44.588;33.450;2023-04-24T05:32:12;11.38;;;3.55;;
76854;SDS011;66343;44.588;33.450;2023-04-24T05:34:50;9.77;;;3.92;;
76854;SDS011;66343;44.588;33.450;2023-04-24T05:37:20;11.95;;;4.03;;
76854;SDS011;66343;44.588;33.450;2023-04-24T05:39:49;11.20;;;4.20;;
76854;SDS011;66343;44.588;33.450;2023-04-24T05:42:20;11.10;;;4.00;;
76854;SDS011;66343;44.588;33.450;2023-04-24T05:44:53;12.15;;;3.78;;
76854;SDS011;66343;44.588;33.450;2023-04-24T05:47:25;8.48;;;3.42;;
76854;SDS011;66343;44.588;33.450;2023-04-24T05:49:59;10.50;;;3.90;;
76854;SDS011;66343;44.588;33.450;2023-04-24T05:52:30;9.05;;;3.80;;
76854;SDS011;66343;44.588;33.450;2023-04-24T05:55:03;8.73;;;3.80;;
76854;SDS011;66343;44.588;33.450;2023-04-24T05:57:36;11.50;;;3.95;;
76854;SDS011;66343;44.588;33.450;2023-04-24T06:00:06;10.98;;;3.35;;
76854;SDS011;66343;44.588;33.450;2023-04-24T06:02:42;9.32;;;3.40;;
76854;SDS011;66343;44.588;33.450;2023-04-24T06:05:18;9.52;;;3.72;;
76854;SDS011;66343;44.588;33.450;2023-04-24T06:07:47;9.13;;;3.10;;
76854;SDS011;66343;44.588;33.450;2023-04-24T06:10:24;8.35;;;3.35;;
76854;SDS011;66343;44.588;33.450;2023-04-24T06:12:56;6.88;;;2.90;;
76854;SDS011;66343;44.588;33.450;2023-04-24T06:15:30;8.48;;;3.17;;
76854;SDS011;66343;44.588;33.450;2023-04-24T06:18:07;6.60;;;2.70;;
76854;SDS011;66343;44.588;33.450;2023-04-24T06:20:40;7.93;;;3.15;;
76854;SDS011;66343;44.588;33.450;2023-04-24T06:23:14;10.55;;;3.10;;
76854;SDS011;66343;44.588;33.450;2023-04-24T06:25:43;9.50;;;3.03;;
76854;SDS011;66343;44.588;33.450;2023-04-24T06:28:13;5.97;;;2.35;;
76854;SDS011;66343;44.588;33.450;2023-04-24T06:30:43;5.22;;;2.15;;
76854;SDS011;66343;44.588;33.450;2023-04-24T06:33:13;9.73;;;2.70;;
76854;SDS011;66343;44.588;33.450;2023-04-24T06:35:48;6.15;;;2.22;;
76854;SDS011;66343;44.588;33.450;2023-04-24T06:38:17;7.80;;;2.17;;
76854;SDS011;66343;44.588;33.450;2023-04-24T06:40:53;8.00;;;1.90;;
76854;SDS011;66343;44.588;33.450;2023-04-24T06:43:25;8.75;;;1.90;;
76854;SDS011;66343;44.588;33.450;2023-04-24T06:45:55;8.40;;;2.42;;
76854;SDS011;66343;44.588;33.450;2023-04-24T06:48:24;7.05;;;2.10;;
76854;SDS011;66343;44.588;33.450;2023-04-24T06:50:56;5.80;;;2.28;;
76854;SDS011;66343;44.588;33.450;2023-04-24T06:53:25;8.05;;;2.35;;
76854;SDS011;66343;44.588;33.450;2023-04-24T06:55:58;6.45;;;2.22;;
76854;SDS011;66343;44.588;33.450;2023-04-24T06:58:32;5.28;;;1.67;;
76854;SDS011;66343;44.588;33.450;2023-04-24T07:01:03;6.57;;;2.10;;
76854;SDS011;66343;44.588;33.450;2023-04-24T07:03:36;8.27;;;2.60;;
76854;SDS011;66343;44.588;33.450;2023-04-24T07:06:10;8.90;;;2.53;;
76854;SDS011;66343;44.588;33.450;2023-04-24T07:08:47;8.30;;;3.45;;
76854;SDS011;66343;44.588;33.450;2023-04-24T07:11:21;11.18;;;4.30;;
76854;SDS011;66343;44.588;33.450;2023-04-24T07:13:57;8.65;;;3.15;;
76854;SDS011;66343;44.588;33.450;2023-04-24T07:16:31;9.45;;;2.97;;
76854;SDS011;66343;44.588;33.450;2023-04-24T07:19:01;8.07;;;2.90;;
76854;SDS011;66343;44.588;33.450;2023-04-24T07:21:36;7.05;;;2.63;;
76854;SDS011;66343;44.588;33.450;2023-04-24T07:24:08;12.60;;;3.40;;
76854;SDS011;66343;44.588;33.450;2023-04-24T07:26:53;8.60;;;3.42;;
76854;SDS011;66343;44.588;33.450;2023-04-24T07:29:26;7.47;;;2.47;;
76854;SDS011;66343;44.588;33.450;2023-04-24T07:31:58;8.45;;;2.47;;
76854;SDS011;66343;44.588;33.450;2023-04-24T07:38:56;8.80;;;2.28;;
76854;SDS011;66343;44.588;33.450;2023-04-24T07:41:27;7.22;;;2.60;;
76854;SDS011;66343;44.588;33.450;2023-04-24T07:44:02;6.40;;;2.25;;
76854;SDS011;66343;44.588;33.450;2023-04-24T07:46:33;7.78;;;2.50;;
76854;SDS011;66343;44.588;33.450;2023-04-24T07:49:07;8.27;;;2.75;;
76854;SDS011;66343;44.588;33.450;2023-04-24T07:51:40;8.38;;;2.50;;
76854;SDS011;66343;44.588;33.450;2023-04-24T07:54:12;7.07;;;2.28;;
76854;SDS011;66343;44.588;33.450;2023-04-24T07:56:43;12.70;;;4.03;;
76854;SDS011;66343;44.588;33.450;2023-04-24T07:59:17;7.97;;;3.10;;
76854;SDS011;66343;44.588;33.450;2023-04-24T08:01:46;6.63;;;2.88;;
76854;SDS011;66343;44.588;33.450;2023-04-24T08:04:18;8.43;;;2.75;;
76854;SDS011;66343;44.588;33.450;2023-04-24T08:06:50;8.35;;;2.90;;
76854;SDS011;66343;44.588;33.450;2023-04-24T08:09:29;9.32;;;3.65;;
76854;SDS011;66343;44.588;33.450;2023-04-24T08:11:58;9.93;;;4.03;;
76854;SDS011;66343;44.588;33.450;2023-04-24T08:14:30;9.80;;;3.50;;
76854;SDS011;66343;44.588;33.450;2023-04-24T08:16:59;8.85;;;3.38;;
76854;SDS011;66343;44.588;33.450;2023-04-24T08:22:03;7.55;;;4.05;;
76854;SDS011;66343;44.588;33.450;2023-04-24T08:24:32;8.73;;;3.50;;
76854;SDS011;66343;44.588;33.450;2023-04-24T08:27:04;10.88;;;2.92;;
76854;SDS011;66343;44.588;33.450;2023-04-24T08:29:37;8.65;;;3.13;;
76854;SDS011;66343;44.588;33.450;2023-04-24T08:32:06;8.85;;;3.15;;
76854;SDS011;66343;44.588;33.450;2023-04-24T08:34:40;12.10;;;3.33;;
76854;SDS011;66343;44.588;33.450;2023-04-24T08:37:12;9.57;;;3.40;;
76854;SDS011;66343;44.588;33.450;2023-04-24T08:39:41;9.45;;;2.75;;
76854;SDS011;66343;44.588;33.450;2023-04-24T08:42:13;7.80;;;3.00;;
76854;SDS011;66343;44.588;33.450;2023-04-24T08:44:47;13.10;;;3.40;;
76854;SDS011;66343;44.588;33.450;2023-04-24T08:47:19;7.90;;;3.10;;
76854;SDS011;66343;44.588;33.450;2023-04-24T08:49:53;10.57;;;3.65;;
76854;SDS011;66343;44.588;33.450;2023-04-24T08:52:26;13.23;;;3.72;;
76854;SDS011;66343;44.588;33.450;2023-04-24T08:54:56;10.90;;;3.22;;
76854;SDS011;66343;44.588;33.450;2023-04-24T08:57:25;9.48;;;3.25;;
76854;SDS011;66343;44.588;33.450;2023-04-24T09:00:03;9.70;;;3.80;;
76854;SDS011;66343;44.588;33.450;2023-04-24T09:02:35;8.43;;;3.25;;
76854;SDS011;66343;44.588;33.450;2023-04-24T09:05:11;9.05;;;3.33;;
76854;SDS011;66343;44.588;33.450;2023-04-24T09:07:43;8.98;;;3.13;;
76854;SDS011;66343;44.588;33.450;2023-04-24T09:10:15;8.75;;;3.35;;
76854;SDS011;66343;44.588;33.450;2023-04-24T09:12:45;10.73;;;4.78;;
76854;SDS011;66343;44.588;33.450;2023-04-24T09:15:19;9.50;;;3.08;;
76854;SDS011;66343;44.588;33.450;2023-04-24T09:17:50;10.27;;;3.22;;
76854;SDS011;66343;44.588;33.450;2023-04-24T09:20:19;8.23;;;3.28;;
76854;SDS011;66343;44.588;33.450;2023-04-24T09:22:53;8.60;;;3.45;;
76854;SDS011;66343;44.588;33.450;2023-04-24T09:25:33;8.10;;;3.72;;
76854;SDS011;66343;44.588;33.450;2023-04-24T09:28:05;8.15;;;2.78;;
76854;SDS011;66343;44.588;33.450;2023-04-24T09:30:34;7.75;;;3.22;;
76854;SDS011;66343;44.588;33.450;2023-04-24T09:33:15;8.85;;;3.10;;
76854;SDS011;66343;44.588;33.450;2023-04-24T09:35:53;7.68;;;3.53;;
76854;SDS011;66343;44.588;33.450;2023-04-24T09:38:38;8.43;;;3.80;;
76854;SDS011;66343;44.588;33.450;2023-04-24T09:41:08;8.68;;;3.58;;
76854;SDS011;66343;44.588;33.450;2023-04-24T09:43:43;7.35;;;3.13;;
76854;SDS011;66343;44.588;33.450;2023-04-24T09:46:12;8.18;;;3.53;;
76854;SDS011;66343;44.588;33.450;2023-04-24T09:48:44;10.00;;;3.67;;
76854;SDS011;66343;44.588;33.450;2023-04-24T09:51:15;10.95;;;3.60;;
76854;SDS011;66343;44.588;33.450;2023-04-24T09:53:47;7.63;;;3.00;;
76854;SDS011;66343;44.588;33.450;2023-04-24T09:56:25;8.55;;;2.97;;
76854;SDS011;66343;44.588;33.450;2023-04-24T09:59:07;8.43;;;3.25;;
76854;SDS011;66343;44.588;33.450;2023-04-24T10:01:39;7.82;;;3.13;;
76854;SDS011;66343;44.588;33.450;2023-04-24T10:04:17;8.68;;;3.30;;
76854;SDS011;66343;44.588;33.450;2023-04-24T10:06:53;8.55;;;3.42;;
76854;SDS011;66343;44.588;33.450;2023-04-24T10:09:26;8.98;;;3.53;;
76854;SDS011;66343;44.588;33.450;2023-04-24T10:11:55;8.85;;;3.35;;
76854;SDS011;66343;44.588;33.450;2023-04-24T10:14:27;8.23;;;2.97;;
76854;SDS011;66343;44.588;33.450;2023-04-24T10:16:57;10.27;;;3.97;;
76854;SDS011;66343;44.588;33.450;2023-04-24T10:19:30;8.80;;;3.22;;
76854;SDS011;66343;44.588;33.450;2023-04-24T10:22:01;10.43;;;3.60;;
76854;SDS011;66343;44.588;33.450;2023-04-24T10:24:34;7.97;;;3.40;;
76854;SDS011;66343;44.588;33.450;2023-04-24T10:27:06;6.40;;;3.08;;
76854;SDS011;66343;44.588;33.450;2023-04-24T10:29:36;7.93;;;3.42;;
76854;SDS011;66343;44.588;33.450;2023-04-24T10:32:07;9.70;;;3.75;;
76854;SDS011;66343;44.588;33.450;2023-04-24T10:34:37;11.35;;;3.78;;
76854;SDS011;66343;44.588;33.450;2023-04-24T10:37:07;7.18;;;3.47;;
76854;SDS011;66343;44.588;33.450;2023-04-24T10:39:35;8.30;;;3.38;;
76854;SDS011;66343;44.588;33.450;2023-04-24T10:42:14;8.77;;;4.22;;
76854;SDS011;66343;44.588;33.450;2023-04-24T10:44:44;9.25;;;4.22;;
76854;SDS011;66343;44.588;33.450;2023-04-24T10:47:19;10.45;;;3.92;;
76854;SDS011;66343;44.588;33.450;2023-04-24T10:49:50;10.45;;;4.30;;
76854;SDS011;66343;44.588;33.450;2023-04-24T10:52:22;8.50;;;3.80;;
76854;SDS011;66343;44.588;33.450;2023-04-24T10:55:14;10.15;;;4.38;;
76854;SDS011;66343;44.588;33.450;2023-04-24T10:58:06;10.60;;;3.95;;
76854;SDS011;66343;44.588;33.450;2023-04-24T11:00:37;8.55;;;4.05;;
76854;SDS011;66343;44.588;33.450;2023-04-24T11:03:22;9.35;;;3.50;;
76854;SDS011;66343;44.588;33.450;2023-04-24T11:06:07;8.02;;;3.28;;
76854;SDS011;66343;44.588;33.450;2023-04-24T11:08:40;9.52;;;3.25;;
76854;SDS011;66343;44.588;33.450;2023-04-24T11:11:13;8.35;;;3.63;;
76854;SDS011;66343;44.588;33.450;2023-04-24T11:19:41;7.63;;;3.28;;
76854;SDS011;66343;44.588;33.450;2023-04-24T11:22:16;7.25;;;3.10;;
76854;SDS011;66343;44.588;33.450;2023-04-24T11:24:49;7.28;;;3.53;;
76854;SDS011;66343;44.588;33.450;2023-04-24T11:27:26;7.03;;;3.28;;
76854;SDS011;66343;44.588;33.450;2023-04-24T11:30:18;10.27;;;4.07;;
76854;SDS011;66343;44.588;33.450;2023-04-24T11:32:50;9.43;;;3.85;;
76854;SDS011;66343;44.588;33.450;2023-04-24T11:35:20;9.57;;;3.92;;
76854;SDS011;66343;44.588;33.450;2023-04-24T11:37:55;8.73;;;3.58;;
76854;SDS011;66343;44.588;33.450;2023-04-24T11:40:53;8.15;;;3.65;;
76854;SDS011;66343;44.588;33.450;2023-04-24T11:43:26;10.55;;;4.40;;
76854;SDS011;66343;44.588;33.450;2023-04-24T11:46:03;8.90;;;3.60;;
76854;SDS011;66343;44.588;33.450;2023-04-24T11:48:34;8.48;;;4.10;;
76854;SDS011;66343;44.588;33.450;2023-04-24T11:51:08;7.53;;;3.92;;
76854;SDS011;66343;44.588;33.450;2023-04-24T11:53:42;9.75;;;3.50;;
76854;SDS011;66343;44.588;33.450;2023-04-24T11:56:18;6.50;;;2.90;;
76854;SDS011;66343;44.588;33.450;2023-04-24T11:58:48;8.13;;;3.47;;
76854;SDS011;66343;44.588;33.450;2023-04-24T12:01:19;8.95;;;3.17;;
76854;SDS011;66343;44.588;33.450;2023-04-24T12:03:58;8.80;;;3.17;;
76854;SDS011;66343;44.588;33.450;2023-04-24T12:06:29;7.30;;;3.38;;
76854;SDS011;66343;44.588;33.450;2023-04-24T12:09:01;7.47;;;3.20;;
76854;SDS011;66343;44.588;33.450;2023-04-24T12:11:54;7.80;;;3.88;;
76854;SDS011;66343;44.588;33.450;2023-04-24T12:14:29;11.23;;;3.95;;
76854;SDS011;66343;44.588;33.450;2023-04-24T12:16:58;8.68;;;3.95;;
76854;SDS011;66343;44.588;33.450;2023-04-24T12:19:28;10.02;;;3.70;;
76854;SDS011;66343;44.588;33.450;2023-04-24T12:22:02;7.40;;;2.97;;
76854;SDS011;66343;44.588;33.450;2023-04-24T12:24:33;8.18;;;3.95;;
76854;SDS011;66343;44.588;33.450;2023-04-24T12:27:22;7.45;;;3.58;;
76854;SDS011;66343;44.588;33.450;2023-04-24T12:29:52;9.00;;;4.90;;
76854;SDS011;66343;44.588;33.450;2023-04-24T12:32:22;7.72;;;4.28;;
76854;SDS011;66343;44.588;33.450;2023-04-24T12:34:57;9.30;;;3.97;;
76854;SDS011;66343;44.588;33.450;2023-04-24T12:37:37;9.32;;;4.28;;
76854;SDS011;66343;44.588;33.450;2023-04-24T12:40:13;10.30;;;4.88;;
76854;SDS011;66343;44.588;33.450;2023-04-24T12:42:51;13.00;;;4.00;;
76854;SDS011;66343;44.588;33.450;2023-04-24T12:45:21;8.68;;;3.97;;
76854;SDS011;66343;44.588;33.450;2023-04-24T12:47:53;7.90;;;3.28;;
76854;SDS011;66343;44.588;33.450;2023-04-24T12:50:22;6.45;;;2.95;;
76854;SDS011;66343;44.588;33.450;2023-04-24T12:52:51;6.30;;;2.65;;
76854;SDS011;66343;44.588;33.450;2023-04-24T12:55:23;8.32;;;3.10;;
76854;SDS011;66343;44.588;33.450;2023-04-24T12:58:00;8.40;;;3.22;;
76854;SDS011;66343;44.588;33.450;2023-04-24T13:00:34;9.13;;;3.92;;
76854;SDS011;66343;44.588;33.450;2023-04-24T13:03:04;7.90;;;3.15;;
76854;SDS011;66343;44.588;33.450;2023-04-24T13:05:36;7.88;;;3.03;;
76854;SDS011;66343;44.588;33.450;2023-04-24T13:08:08;8.73;;;3.40;;
76854;SDS011;66343;44.588;33.450;2023-04-24T13:13:13;8.63;;;2.97;;
76854;SDS011;66343;44.588;33.450;2023-04-24T13:15:47;8.20;;;3.20;;
76854;SDS011;66343;44.588;33.450;2023-04-24T13:18:16;8.57;;;3.50;;
76854;SDS011;66343;44.588;33.450;2023-04-24T13:20:45;9.20;;;3.13;;
76854;SDS011;66343;44.588;33.450;2023-04-24T13:23:15;8.23;;;3.08;;
76854;SDS011;66343;44.588;33.450;2023-04-24T13:25:45;8.70;;;3.42;;
76854;SDS011;66343;44.588;33.450;2023-04-24T13:28:15;8.43;;;3.58;;
76854;SDS011;66343;44.588;33.450;2023-04-24T13:30:45;6.95;;;2.92;;
76854;SDS011;66343;44.588;33.450;2023-04-24T13:33:16;9.27;;;3.42;;
76854;SDS011;66343;44.588;33.450;2023-04-24T13:35:45;8.90;;;3.20;;
76854;SDS011;66343;44.588;33.450;2023-04-24T13:38:19;7.30;;;3.20;;
76854;SDS011;66343;44.588;33.450;2023-04-24T13:40:49;7.82;;;3.30;;
76854;SDS011;66343;44.588;33.450;2023-04-24T13:43:19;7.30;;;3.10;;
76854;SDS011;66343;44.588;33.450;2023-04-24T13:45:50;9.13;;;3.20;;
76854;SDS011;66343;44.588;33.450;2023-04-24T13:48:21;7.97;;;3.20;;
76854;SDS011;66343;44.588;33.450;2023-04-24T13:50:50;8.90;;;3.22;;
76854;SDS011;66343;44.588;33.450;2023-04-24T13:53:19;6.75;;;2.85;;
76854;SDS011;66343;44.588;33.450;2023-04-24T13:55:49;8.55;;;3.53;;
76854;SDS011;66343;44.588;33.450;2023-04-24T13:58:18;8.05;;;3.33;;
76854;SDS011;66343;44.588;33.450;2023-04-24T14:00:47;6.38;;;3.28;;
76854;SDS011;66343;44.588;33.450;2023-04-24T14:03:21;7.95;;;3.33;;
76854;SDS011;66343;44.588;33.450;2023-04-24T14:05:51;7.93;;;3.35;;
76854;SDS011;66343;44.588;33.450;2023-04-24T14:08:20;7.65;;;3.15;;
76854;SDS011;66343;44.588;33.450;2023-04-24T14:10:52;8.13;;;3.25;;
76854;SDS011;66343;44.588;33.450;2023-04-24T14:13:25;6.88;;;3.13;;
76854;SDS011;66343;44.588;33.450;2023-04-24T14:15:56;6.28;;;2.88;;
76854;SDS011;66343;44.588;33.450;2023-04-24T14:18:26;8.70;;;3.42;;
76854;SDS011;66343;44.588;33.450;2023-04-24T14:20:58;8.80;;;3.38;;
76854;SDS011;66343;44.588;33.450;2023-04-24T14:23:27;7.20;;;3.25;;
76854;SDS011;66343;44.588;33.450;2023-04-24T14:25:57;10.85;;;3.85;;
76854;SDS011;66343;44.588;33.450;2023-04-24T14:28:35;7.28;;;3.17;;
76854;SDS011;66343;44.588;33.450;2023-04-24T14:31:04;7.32;;;3.30;;
76854;SDS011;66343;44.588;33.450;2023-04-24T14:33:35;9.48;;;3.50;;
76854;SDS011;66343;44.588;33.450;2023-04-24T14:36:06;6.57;;;3.30;;
76854;SDS011;66343;44.588;33.450;2023-04-24T14:38:38;7.43;;;3.22;;
76854;SDS011;66343;44.588;33.450;2023-04-24T14:41:08;7.70;;;3.10;;
76854;SDS011;66343;44.588;33.450;2023-04-24T14:43:41;8.98;;;3.25;;
76854;SDS011;66343;44.588;33.450;2023-04-24T14:46:13;8.05;;;3.10;;
76854;SDS011;66343;44.588;33.450;2023-04-24T14:48:46;7.43;;;2.90;;
76854;SDS011;66343;44.588;33.450;2023-04-24T14:51:19;9.50;;;3.28;;
76854;SDS011;66343;44.588;33.450;2023-04-24T14:53:48;10.90;;;3.80;;
76854;SDS011;66343;44.588;33.450;2023-04-24T14:56:20;9.48;;;3.30;;
76854;SDS011;66343;44.588;33.450;2023-04-24T14:58:52;7.80;;;3.28;;
76854;SDS011;66343;44.588;33.450;2023-04-24T15:01:25;9.02;;;3.60;;
76854;SDS011;66343;44.588;33.450;2023-04-24T15:04:03;8.88;;;2.72;;
76854;SDS011;66343;44.588;33.450;2023-04-24T15:06:34;7.32;;;3.10;;
76854;SDS011;66343;44.588;33.450;2023-04-24T15:09:08;8.07;;;3.05;;
76854;SDS011;66343;44.588;33.450;2023-04-24T15:11:41;8.90;;;2.90;;
76854;SDS011;66343;44.588;33.450;2023-04-24T15:14:13;6.95;;;3.20;;
76854;SDS011;66343;44.588;33.450;2023-04-24T15:16:43;6.97;;;2.78;;
76854;SDS011;66343;44.588;33.450;2023-04-24T15:19:15;10.07;;;3.00;;
76854;SDS011;66343;44.588;33.450;2023-04-24T15:21:47;6.38;;;2.95;;
76854;SDS011;66343;44.588;33.450;2023-04-24T15:24:16;8.23;;;3.45;;
76854;SDS011;66343;44.588;33.450;2023-04-24T15:26:51;8.88;;;3.28;;
76854;SDS011;66343;44.588;33.450;2023-04-24T15:29:29;9.93;;;3.17;;